Aeroporto :
LOGIN :

Iscrizione | Disclaimer

   EN    FR    IT 

 










Sommario :    VFR   VFR Marginale   IFR   IFR Intensivo   IFR Molto Intensivo
Visibilità : 
Base nubi : 
>= 8 km
>= 3000ft
5 / 8 km
1000 / 3000 ft
1500m / 5 km
500 / 1000 ft
800 / 1500m
200 / 500 ft
< 800m
< 200 ft
Simboli :   Temporali  Nebbia  Neve Forte  Precipitazioni Forti  Vento > 20 kt
SIGMETs :   Varie  Temporali  Ghiacco  Turbolenza  Onda orograficha  Ceneri Vulcaniche







- Altitudine del aeroporto : 526 ft
- Codice IATA : LTN
- Carte del aeroporto


EGGW - London Luton

ULTIMO METAR :
  • 212350Z AUTO 34005KT 9999 NCD 12/09 Q1015

METARs OBSOLETI :
  • 212320Z AUTO 02006KT 9999 NCD 12/10 Q1015
  • 212250Z AUTO 01006KT 340V060 9999 NCD 13/10 Q1015
  • 212220Z AUTO 36006KT 9999 NCD 13/09 Q1015
  • 212150Z AUTO 01007KT 9999 NCD 14/09 Q1015
  • 212120Z AUTO 36006G16KT 320V020 9999 NCD 15/09 Q1015

TAF TAF EGGW
Valido dal 22 a 00 ore il 23 a 00 ore UTC


212300Z 2200/2224 01008KT 9999 FEW040
PROB30
TEMPO 2200/2208 8000
PROB30 2221/2224 8000 BKN008
ATIS : +44 1582 395 204
Nessun NOTAM noto per questo aeroporto.



MetMap, La meteo Aeronautica in un colpo d'occhio ! - Copyright ORBIFLY Dicembre 2007 - Disclaimer

ORBIFLY MET'MAP TEAM :

Programmazione e sviluppo : Alexandra Zaïnal
Concezione e sviluppo : Baudouin d'Aumeries
Co-Programmazione e sviluppo : Marc-Olivier Méhu
Supporto tecnico e logistico : Manuel Goepfert
Aiuto per la traduzione : Arnaldo La Scala

Contatto : metmap@orbifly.com




FONTI E CREDITI :

   NOAA